Погода Марынона неделю

Мазовецкое воеводство, Польша

23 - 29 июля
  • 23июля
    Сегодня
    +11°
    +27°
    Небольшая облачность
    ВремяПогодаТемператураВлажностьДавлениеВетер, м/сВероятность осадков
    02:00Облачно с прояснениями+20°C76 %746 мм2.1 м/с3 %
    05:00Пасмурно, сплошная облачность+18°C87 %747 мм2.3 м/с8 %
    08:00Небольшая облачность+20°C87 %748 мм2.8 м/с30 %
    11:00Практически безоблачно+23°C66 %748 мм3.3 м/с24 %
    14:00Небольшая облачность+27°C49 %747 мм3.5 м/с21 %
    17:00Облачно с прояснениями+26°C44 %747 мм3.4 м/с8 %
    20:00Облачно с прояснениями+23°C60 %747 мм1.4 м/с2 %
    23:00Небольшая облачность+17°C74 %747 мм0.7 м/с2 %
  • 24июля
    Среда
    +15°
    +27°
    Облачно с прояснениями
    ВремяПогодаТемператураВлажностьДавлениеВетер, м/сВероятность осадков
    02:00Ясно и безоблачно+14°C83 %746 мм0.9 м/с2 %
    05:00Ясно и безоблачно+12°C92 %745 мм0.7 м/с2 %
    08:00Облачно с прояснениями+20°C66 %746 мм1.1 м/с2 %
    11:00Облачно с прояснениями+25°C46 %745 мм2.1 м/с11 %
    14:00Облачно с прояснениями+26°C36 %744 мм2.8 м/с11 %
    17:00Облачно с прояснениями+24°C32 %743 мм2.6 м/с18 %
    20:00Облачно с прояснениями+23°C63 %744 мм1.7 м/с30 %
    23:00Пасмурно, дождь+18°C87 %744 мм1.4 м/с50 %
  • 25июля
    Четверг
    +13°
    +22°
    Пасмурно, дожди с грозами
    ВремяПогодаТемператураВлажностьДавлениеВетер, м/сВероятность осадков
    02:00Пасмурно, дождь+16°C94 %744 мм1.7 м/с59 %
    05:00Пасмурно, дождь+15°C97 %743 мм2.1 м/с65 %
    08:00Пасмурно, ливень+17°C93 %744 мм2.5 м/с71 %
    11:00Пасмурно, небольшой дождь+19°C83 %744 мм2.7 м/с75 %
    14:00Пасмурно, дожди с грозами+20°C76 %744 мм3.1 м/с68 %
    17:00Небольшая облачность, ливень+21°C77 %744 мм3.2 м/с72 %
    20:00Практически безоблачно+19°C80 %744 мм1.8 м/с46 %
    23:00Ясно и безоблачно+15°C87 %744 мм1.3 м/с12 %
  • 26июля
    Пятница
    +11°
    +25°
    Небольшая облачность
    ВремяПогодаТемператураВлажностьДавлениеВетер, м/сВероятность осадков
    02:00Ясно и безоблачно+14°C93 %745 мм1.7 м/с11 %
    05:00Ясно и безоблачно+14°C96 %745 мм1.5 м/с15 %
    08:00Практически безоблачно+18°C80 %746 мм2.0 м/с18 %
    11:00Практически безоблачно+22°C58 %746 мм2.6 м/с39 %
    14:00Небольшая облачность+24°C48 %746 мм2.8 м/с41 %
    17:00Облачно с прояснениями+24°C46 %746 мм2.4 м/с36 %
    20:00Практически безоблачно+22°C64 %747 мм0.5 м/с12 %
    23:00Облачно с прояснениями+16°C79 %747 мм0.0 м/с2 %
  • 27июля
    Суббота
    +16°
    +29°
    Ясно и безоблачно
    ВремяПогодаТемператураВлажностьДавлениеВетер, м/сВероятность осадков
    02:00Ясно и безоблачно+14°C84 %748 мм0.4 м/с2 %
    05:00Небольшая облачность+11°C92 %748 мм0.5 м/с2 %
    08:00Ясно и безоблачно+21°C73 %749 мм0.8 м/с2 %
    11:00Ясно и безоблачно+25°C48 %749 мм1.5 м/с8 %
    14:00Ясно и безоблачно+28°C42 %749 мм1.8 м/с16 %
    17:00Ясно и безоблачно+28°C41 %749 мм2.1 м/с7 %
    20:00Ясно и безоблачно+24°C61 %749 мм0.9 м/с2 %
    23:00Ясно и безоблачно+19°C61 %749 мм0.8 м/с4 %
Мы используем cookies
Соглашаюсь